Time;durP1;ratioP1;P1;durP2;ratioP2;P2;SDS_P1;SDS_P2;PMS_P1;PMS_P2;Temp;Humidity;BMP_temperature;BMP_pressure;BME280_temperature;BME280_humidity;BME280_pressure;Samples;Min_cycle;Max_cycle;Signal;HPM_P1;HPM_P2
2022/12/27 00:01:08;;;;;;;;;;;4.70;99.90;;;;;;5095713;28;19915;-63
2022/12/27 00:03:33;;;;;;;;;;;4.70;99.90;;;;;;5095353;28;20005;-63
2022/12/27 00:05:59;;;;;;;;;;;4.60;99.90;;;;;;5095400;28;19948;-63
2022/12/27 00:08:24;;;;;;;;;;;4.60;99.90;;;;;;5095585;28;19908;-63
2022/12/27 00:10:50;;;;;;;;;;;4.50;99.90;;;;;;5095295;28;19908;-63
2022/12/27 00:13:15;;;;;;;;;;;4.50;99.90;;;;;;5095182;28;19958;-64
2022/12/27 00:15:41;;;;;;;;;;;4.50;99.90;;;;;;5095101;28;20312;-63
2022/12/27 00:18:06;;;;;;;;;;;4.50;99.90;;;;;;5077134;28;20011;-63
2022/12/27 00:20:31;;;;;;;;;;;4.40;99.90;;;;;;5076924;28;20012;-63
2022/12/27 00:22:58;;;;;;;;;;;4.40;99.90;;;;;;5095334;28;19961;-63
2022/12/27 00:25:24;;;;;;;;;;;4.40;99.90;;;;;;5094942;28;20015;-63
2022/12/27 00:27:49;;;;;;;;;;;4.40;99.90;;;;;;5094936;28;19954;-63
2022/12/27 00:30:14;;;;;;;;;;;4.40;99.90;;;;;;5076649;28;19994;-63
2022/12/27 00:32:40;;;;;;;;;;;4.30;99.90;;;;;;5077027;28;19960;-63
2022/12/27 00:35:05;;;;;;;;;;;4.40;99.90;;;;;;5094797;28;19962;-63
2022/12/27 00:37:31;;;;;;;;;;;4.30;99.90;;;;;;5076797;28;19912;-63
2022/12/27 00:39:56;;;;;;;;;;;4.30;99.90;;;;;;5094724;28;19916;-63
2022/12/27 00:42:22;;;;;;;;;;;4.20;99.90;;;;;;5094673;28;20384;-63
2022/12/27 00:44:47;;;;;;;;;;;4.20;99.90;;;;;;5094389;28;20003;-63
2022/12/27 00:47:13;;;;;;;;;;;4.10;99.90;;;;;;5094593;28;20350;-63
2022/12/27 00:49:38;;;;;;;;;;;4.10;99.90;;;;;;5094808;28;19984;-63
2022/12/27 00:52:04;;;;;;;;;;;4.10;99.90;;;;;;5094530;28;19999;-63
2022/12/27 00:54:29;;;;;;;;;;;4.10;99.90;;;;;;5059082;28;19923;-63
2022/12/27 00:56:54;;;;;;;;;;;4.10;99.90;;;;;;5094358;28;19908;-63
2022/12/27 00:59:20;;;;;;;;;;;4.10;99.90;;;;;;5094644;28;19944;-63
2022/12/27 01:01:45;;;;;;;;;;;4.10;99.90;;;;;;5094316;28;19958;-63
2022/12/27 01:04:12;;;;;;;;;;;4.00;99.90;;;;;;5076172;28;20365;-63
2022/12/27 01:06:38;;;;;;;;;;;4.00;99.90;;;;;;5094268;28;19912;-63
2022/12/27 01:09:04;;;;;;;;;;;4.00;99.90;;;;;;5094477;28;19915;-63
2022/12/27 01:11:29;;;;;;;;;;;3.90;99.90;;;;;;5094183;28;20006;-63
2022/12/27 01:13:57;;;;;;;;;;;3.90;99.90;;;;;;5075971;28;19954;-63
2022/12/27 01:16:23;;;;;;;;;;;3.90;99.90;;;;;;5094065;28;19908;-63
2022/12/27 01:18:49;;;;;;;;;;;3.80;99.90;;;;;;5075966;28;19915;-63
2022/12/27 01:21:16;;;;;;;;;;;3.80;99.90;;;;;;5094247;28;19908;-63
2022/12/27 01:23:42;;;;;;;;;;;3.80;99.90;;;;;;5093919;28;19912;-63
2022/12/27 01:26:10;;;;;;;;;;;3.80;99.90;;;;;;5075839;28;19957;-63
2022/12/27 01:28:35;;;;;;;;;;;3.80;99.90;;;;;;5093910;28;20006;-64
2022/12/27 01:31:09;;;;;;;;;;;3.80;99.90;;;;;;5093911;28;19982;-63
2022/12/27 01:33:35;;;;;;;;;;;3.80;99.90;;;;;;5094098;28;20281;-65
2022/12/27 01:36:17;;;;;;;;;;;3.80;99.90;;;;;;5093893;28;20010;-63
2022/12/27 01:38:43;;;;;;;;;;;3.80;99.90;;;;;;5093807;28;20408;-63
2022/12/27 01:43:57;;;;;;;;;;;3.70;99.90;;;;;;5093333;28;19924;-63
2022/12/27 01:46:22;;;;;;;;;;;3.80;99.90;;;;;;5093749;28;19916;-63
2022/12/27 01:48:48;;;;;;;;;;;3.80;99.90;;;;;;5093785;28;19953;-63
2022/12/27 01:51:14;;;;;;;;;;;3.70;99.90;;;;;;5093709;28;20293;-63
2022/12/27 01:53:41;;;;;;;;;;;3.70;99.90;;;;;;5093685;28;19908;-63
2022/12/27 01:56:10;;;;;;;;;;;3.70;99.90;;;;;;5093608;28;19911;-63
2022/12/27 01:58:45;;;;;;;;;;;3.80;99.90;;;;;;5093712;28;19915;-65
2022/12/27 02:01:13;;;;;;;;;;;3.80;99.90;;;;;;5075501;28;19965;-63
2022/12/27 02:03:41;;;;;;;;;;;3.80;99.90;;;;;;5093498;28;19947;-63
2022/12/27 02:06:07;;;;;;;;;;;3.80;99.90;;;;;;5095245;28;19908;-64
2022/12/27 02:08:53;;;;;;;;;;;3.80;99.90;;;;;;5079627;28;19908;-63
2022/12/27 02:11:49;;;;;;;;;;;3.80;99.90;;;;;;5097461;28;19953;-63
2022/12/27 02:14:06;;;;;;;;;;;3.80;99.90;;;;;;5097341;28;19961;-64
2022/12/27 02:16:31;;;;;;;;;;;3.80;99.90;;;;;;5097502;28;19930;-63
2022/12/27 02:18:57;;;;;;;;;;;3.80;99.90;;;;;;5097442;28;19908;-63
2022/12/27 02:21:30;;;;;;;;;;;3.80;99.90;;;;;;5097349;28;19944;-63
2022/12/27 02:24:05;;;;;;;;;;;3.70;99.90;;;;;;5097237;28;19962;-63
2022/12/27 02:26:43;;;;;;;;;;;3.70;99.90;;;;;;5097328;28;19912;-63
2022/12/27 02:29:17;;;;;;;;;;;3.80;99.90;;;;;;5097277;28;19908;-64
2022/12/27 02:31:54;;;;;;;;;;;3.80;99.90;;;;;;5097175;28;19931;-63
2022/12/27 02:34:22;;;;;;;;;;;3.80;99.90;;;;;;5097185;28;20398;-63
2022/12/27 02:36:51;;;;;;;;;;;3.80;99.90;;;;;;5097146;28;19908;-63
2022/12/27 02:39:19;;;;;;;;;;;3.80;99.90;;;;;;5097082;28;19912;-63
2022/12/27 02:53:07;;;;;;;;;;;3.90;99.90;;;;;;5096537;28;19922;-64
2022/12/27 02:58:30;;;;;;;;;;;3.90;99.90;;;;;;5071160;28;19912;-63
2022/12/27 03:06:47;;;;;;;;;;;3.90;99.90;;;;;;5091383;27;19913;-64
2022/12/27 03:18:08;;;;;;;;;;;3.80;99.90;;;;;;5090831;28;19909;-63
2022/12/27 03:26:07;;;;;;;;;;;3.90;99.90;;;;;;5090656;28;19920;-63
2022/12/27 03:34:30;;;;;;;;;;;3.80;99.90;;;;;;5090580;28;19962;-63
2022/12/27 03:39:51;;;;;;;;;;;3.80;99.90;;;;;;5090480;28;19909;-63
2022/12/27 03:45:05;;;;;;;;;;;3.90;99.90;;;;;;5090290;28;19912;-63
2022/12/27 03:47:48;;;;;;;;;;;3.90;99.90;;;;;;5090460;28;20385;-63
2022/12/27 03:50:33;;;;;;;;;;;3.90;99.90;;;;;;5090664;28;20021;-63
2022/12/27 03:53:02;;;;;;;;;;;3.90;99.90;;;;;;5090423;28;19908;-63
2022/12/27 03:55:28;;;;;;;;;;;4.00;99.90;;;;;;5090302;28;20293;-63
2022/12/27 03:57:53;;;;;;;;;;;4.00;99.90;;;;;;5090216;28;19915;-62
2022/12/27 04:00:19;;;;;;;;;;;3.90;99.90;;;;;;5090197;28;19915;-62
2022/12/27 04:02:44;;;;;;;;;;;4.00;99.90;;;;;;5090176;28;19908;-62
2022/12/27 04:05:10;;;;;;;;;;;4.00;99.90;;;;;;5088542;28;19926;-63
2022/12/27 04:07:36;;;;;;;;;;;4.00;99.90;;;;;;5090082;28;19997;-63
2022/12/27 04:34:50;;;;;;;;;;;4.10;99.90;;;;;;5075948;28;20427;-63
2022/12/27 04:37:17;;;;;;;;;;;4.10;99.90;;;;;;5076356;28;19908;-63
2022/12/27 04:56:16;;;;;;;;;;;4.30;99.90;;;;;;5075557;28;19915;-63
2022/12/27 05:02:01;;;;;;;;;;;4.40;99.90;;;;;;5075635;28;20282;-63
2022/12/27 05:04:12;;;;;;;;;;;4.40;99.90;;;;;;5077056;28;20277;-63
2022/12/27 05:06:38;;;;;;;;;;;4.60;99.90;;;;;;5095674;28;19942;-63
2022/12/27 05:14:34;;;;;;;;;;;4.60;99.90;;;;;;5095272;28;20003;-63
2022/12/27 05:17:00;;;;;;;;;;;4.70;99.90;;;;;;5095736;28;19939;-63
2022/12/27 05:19:25;;;;;;;;;;;4.60;99.90;;;;;;5095366;28;19987;-63
2022/12/27 05:27:21;;;;;;;;;;;4.60;99.90;;;;;;5094738;28;20360;-63
2022/12/27 05:29:47;;;;;;;;;;;4.60;99.90;;;;;;5076501;28;20013;-63
2022/12/27 05:32:12;;;;;;;;;;;4.60;99.90;;;;;;5095469;28;19943;-63
2022/12/27 05:34:38;;;;;;;;;;;4.60;99.90;;;;;;5077217;28;19912;-62
2022/12/27 05:37:03;;;;;;;;;;;4.50;99.90;;;;;;5095438;28;19908;-63
2022/12/27 05:39:28;;;;;;;;;;;4.50;99.90;;;;;;5095338;28;19908;-62
2022/12/27 05:41:54;;;;;;;;;;;4.50;99.90;;;;;;5095012;28;20438;-63
2022/12/27 05:44:19;;;;;;;;;;;4.50;99.90;;;;;;5076777;28;20286;-63
2022/12/27 05:46:45;;;;;;;;;;;4.60;99.90;;;;;;5094942;28;19909;-63
2022/12/27 05:49:10;;;;;;;;;;;4.60;99.90;;;;;;5060124;28;20002;-63
2022/12/27 05:51:36;;;;;;;;;;;4.70;99.90;;;;;;5094863;28;19915;-62
2022/12/27 05:54:01;;;;;;;;;;;4.70;99.90;;;;;;5095066;28;19908;-63
2022/12/27 05:56:27;;;;;;;;;;;4.70;99.90;;;;;;5094766;28;19908;-63
2022/12/27 05:58:52;;;;;;;;;;;4.80;99.90;;;;;;5094708;28;20357;-63
2022/12/27 06:01:18;;;;;;;;;;;4.80;99.90;;;;;;5094652;28;19912;-63
2022/12/27 06:03:44;;;;;;;;;;;4.80;99.90;;;;;;5094578;28;19953;-63
2022/12/27 06:06:09;;;;;;;;;;;4.80;99.90;;;;;;5094347;28;19920;-63
2022/12/27 06:08:36;;;;;;;;;;;4.90;99.90;;;;;;5094568;28;19912;-63
2022/12/27 06:11:03;;;;;;;;;;;4.80;99.90;;;;;;5094453;28;19908;-62
2022/12/27 06:13:29;;;;;;;;;;;4.80;99.90;;;;;;5094451;28;19908;-63
2022/12/27 06:15:56;;;;;;;;;;;4.80;99.90;;;;;;5076628;28;19909;-63
2022/12/27 06:18:22;;;;;;;;;;;4.80;99.90;;;;;;5094373;28;19961;-62
2022/12/27 06:20:47;;;;;;;;;;;4.90;99.90;;;;;;5076247;28;19916;-63
2022/12/27 06:23:13;;;;;;;;;;;4.80;99.90;;;;;;5094207;28;19908;-62
2022/12/27 06:25:38;;;;;;;;;;;4.80;99.90;;;;;;5094126;28;19918;-63
2022/12/27 06:28:03;;;;;;;;;;;4.90;99.90;;;;;;5094150;28;19916;-63
2022/12/27 06:30:29;;;;;;;;;;;4.90;99.90;;;;;;5094149;28;19948;-63
2022/12/27 06:32:54;;;;;;;;;;;4.90;99.90;;;;;;5094110;28;19908;-62
2022/12/27 06:35:20;;;;;;;;;;;4.90;99.90;;;;;;5094073;28;19922;-63
2022/12/27 06:37:45;;;;;;;;;;;5.00;99.90;;;;;;5094044;28;19908;-63
2022/12/27 06:40:11;;;;;;;;;;;5.00;99.90;;;;;;5093706;28;19925;-63
2022/12/27 06:42:36;;;;;;;;;;;5.00;99.90;;;;;;5094006;28;19915;-63
2022/12/27 06:45:02;;;;;;;;;;;5.00;99.90;;;;;;5093765;28;19919;-63
2022/12/27 06:47:27;;;;;;;;;;;4.90;99.90;;;;;;5093887;28;20001;-63
2022/12/27 06:49:54;;;;;;;;;;;4.90;99.90;;;;;;5093872;28;20008;-63
2022/12/27 06:52:21;;;;;;;;;;;4.90;99.90;;;;;;5093876;28;19916;-63
2022/12/27 06:54:47;;;;;;;;;;;4.90;99.90;;;;;;5094075;28;19915;-63
2022/12/27 06:57:13;;;;;;;;;;;4.90;99.90;;;;;;5093863;28;19908;-63
2022/12/27 06:59:38;;;;;;;;;;;4.90;99.90;;;;;;5094063;28;20272;-63
2022/12/27 07:02:04;;;;;;;;;;;4.80;99.90;;;;;;5093682;28;19908;-62
2022/12/27 07:04:29;;;;;;;;;;;4.90;99.90;;;;;;5093377;28;20015;-63
2022/12/27 07:06:55;;;;;;;;;;;4.90;99.90;;;;;;5093869;28;19908;-62
2022/12/27 07:09:20;;;;;;;;;;;4.90;99.90;;;;;;5093689;28;19908;-62
2022/12/27 07:11:45;;;;;;;;;;;5.00;99.90;;;;;;5075612;28;20008;-63
2022/12/27 07:14:11;;;;;;;;;;;5.00;99.90;;;;;;5093857;28;19908;-63
2022/12/27 07:16:37;;;;;;;;;;;4.90;99.90;;;;;;5075622;28;19908;-63
2022/12/27 07:19:03;;;;;;;;;;;4.90;99.90;;;;;;5093581;28;19908;-63
2022/12/27 07:21:28;;;;;;;;;;;4.90;99.90;;;;;;5075841;28;19942;-63
2022/12/27 07:23:54;;;;;;;;;;;4.90;99.90;;;;;;5093531;28;20262;-63
2022/12/27 07:26:21;;;;;;;;;;;4.80;99.90;;;;;;5093458;28;20436;-63
2022/12/27 07:28:47;;;;;;;;;;;4.80;99.90;;;;;;5093750;28;20273;-63
2022/12/27 07:31:14;;;;;;;;;;;4.80;99.90;;;;;;5093446;28;19908;-63
2022/12/27 07:33:40;;;;;;;;;;;4.80;99.90;;;;;;5093742;28;19908;-63
2022/12/27 07:36:07;;;;;;;;;;;4.70;99.90;;;;;;5093693;28;20310;-63
2022/12/27 07:38:33;;;;;;;;;;;4.80;99.90;;;;;;5093344;28;20003;-63
2022/12/27 07:40:59;;;;;;;;;;;4.80;99.90;;;;;;5093300;28;19952;-63
2022/12/27 07:43:25;;;;;;;;;;;4.80;99.90;;;;;;5093346;28;19916;-63
2022/12/27 07:45:50;;;;;;;;;;;4.80;99.90;;;;;;5093251;28;20289;-63
2022/12/27 07:48:15;;;;;;;;;;;4.80;99.90;;;;;;5093595;28;19938;-63
2022/12/27 07:50:41;;;;;;;;;;;4.70;99.90;;;;;;5093301;28;20399;-64
2022/12/27 07:53:06;;;;;;;;;;;4.60;99.90;;;;;;5097051;28;19908;-63
2022/12/27 07:55:32;;;;;;;;;;;4.60;99.90;;;;;;5097083;28;19957;-63
2022/12/27 07:57:57;;;;;;;;;;;4.60;99.90;;;;;;5078862;28;19912;-65
2022/12/27 08:00:23;;;;;;;;;;;4.60;99.90;;;;;;5094908;28;20396;-63
2022/12/27 08:02:48;;;;;;;;;;;4.60;99.90;;;;;;5096415;28;19965;-63
2022/12/27 08:05:14;;;;;;;;;;;4.70;99.90;;;;;;5095535;28;19920;-63
2022/12/27 08:07:40;;;;;;;;;;;4.60;99.90;;;;;;5096400;28;19912;-63
2022/12/27 08:10:05;;;;;;;;;;;4.60;99.90;;;;;;5096098;28;20003;-63
2022/12/27 08:12:31;;;;;;;;;;;4.70;99.90;;;;;;5103496;28;19934;-63
2022/12/27 08:14:56;;;;;;;;;;;4.80;99.90;;;;;;5109675;28;20362;-63
2022/12/27 08:17:24;;;;;;;;;;;4.80;99.90;;;;;;5097928;28;20556;-63
2022/12/27 08:19:50;;;;;;;;;;;5.10;99.90;;;;;;5098062;28;20441;-63
2022/12/27 08:22:15;;;;;;;;;;;5.40;99.90;;;;;;5097114;28;19951;-63
2022/12/27 08:24:41;;;;;;;;;;;5.60;99.90;;;;;;5107420;28;19918;-64
2022/12/27 08:27:07;;;;;;;;;;;5.60;99.90;;;;;;5092051;28;19912;-63
2022/12/27 08:29:32;;;;;;;;;;;5.80;99.90;;;;;;5102571;28;20358;-63
2022/12/27 08:31:58;;;;;;;;;;;5.80;99.90;;;;;;5106606;28;19923;-62
2022/12/27 08:34:23;;;;;;;;;;;5.80;99.90;;;;;;5107098;28;19920;-63
2022/12/27 08:36:50;;;;;;;;;;;5.80;99.90;;;;;;5103000;28;19961;-63
2022/12/27 08:39:16;;;;;;;;;;;5.90;99.90;;;;;;5101903;28;19923;-63
2022/12/27 08:41:41;;;;;;;;;;;6.00;99.90;;;;;;5103846;28;20014;-63
2022/12/27 08:44:07;;;;;;;;;;;5.90;99.90;;;;;;5109776;28;20356;-63
2022/12/27 08:46:33;;;;;;;;;;;5.90;99.90;;;;;;5097582;28;20365;-63
2022/12/27 08:48:58;;;;;;;;;;;5.80;99.90;;;;;;5098571;28;19938;-63
2022/12/27 08:51:24;;;;;;;;;;;5.90;99.90;;;;;;5096296;28;19966;-63
2022/12/27 08:53:49;;;;;;;;;;;6.30;99.90;;;;;;5109350;28;19957;-63
2022/12/27 08:56:15;;;;;;;;;;;6.60;99.90;;;;;;5109871;28;20003;-63
2022/12/27 08:58:40;;;;;;;;;;;6.60;99.90;;;;;;5085118;28;19973;-63
2022/12/27 09:01:06;;;;;;;;;;;6.70;99.90;;;;;;5094788;28;20423;-62
2022/12/27 09:03:31;;;;;;;;;;;6.70;99.90;;;;;;5112340;28;19908;-63
2022/12/27 09:06:17;;;;;;;;;;;6.50;99.90;;;;;;5094170;28;20317;-64
2022/12/27 09:08:43;;;;;;;;;;;6.60;99.90;;;;;;5093740;28;19912;-64
2022/12/27 09:11:10;;;;;;;;;;;6.50;99.90;;;;;;5091765;28;19912;-64
2022/12/27 09:13:36;;;;;;;;;;;6.20;99.90;;;;;;5095306;28;20361;-63
2022/12/27 09:16:06;;;;;;;;;;;6.10;99.90;;;;;;5094607;28;19915;-63
2022/12/27 09:18:31;;;;;;;;;;;5.90;99.90;;;;;;5095435;28;19915;-63
2022/12/27 09:21:01;;;;;;;;;;;5.70;99.90;;;;;;5095232;28;19908;-63
2022/12/27 09:23:28;;;;;;;;;;;5.70;99.90;;;;;;5095283;28;19908;-63
2022/12/27 09:25:53;;;;;;;;;;;5.80;99.90;;;;;;5095028;28;19916;-63
2022/12/27 09:28:19;;;;;;;;;;;5.80;99.90;;;;;;5095029;28;19908;-63
2022/12/27 09:30:44;;;;;;;;;;;5.70;99.90;;;;;;5093927;28;19959;-64
2022/12/27 09:33:10;;;;;;;;;;;5.70;99.90;;;;;;5079893;28;20361;-63
2022/12/27 09:35:35;;;;;;;;;;;5.60;99.90;;;;;;5096559;28;19912;-62
2022/12/27 09:38:01;;;;;;;;;;;5.60;99.90;;;;;;5091737;28;19911;-63
2022/12/27 09:40:26;;;;;;;;;;;5.70;99.90;;;;;;5106236;28;20438;-63
2022/12/27 09:42:54;;;;;;;;;;;5.80;99.90;;;;;;5103393;28;19933;-63
2022/12/27 09:45:24;;;;;;;;;;;5.80;99.90;;;;;;5079158;28;19959;-63
2022/12/27 09:47:54;;;;;;;;;;;6.00;99.90;;;;;;5102027;28;19912;-63
2022/12/27 09:50:25;;;;;;;;;;;6.30;99.90;;;;;;5088324;28;19959;-63
2022/12/27 09:52:58;;;;;;;;;;;6.50;99.90;;;;;;5105123;28;20365;-63
2022/12/27 09:55:43;;;;;;;;;;;7.00;99.90;;;;;;5100727;28;20377;-63
2022/12/27 09:58:29;;;;;;;;;;;6.70;99.90;;;;;;5090242;28;19915;-63
2022/12/27 10:00:54;;;;;;;;;;;7.00;99.90;;;;;;5098074;28;19919;-63
2022/12/27 10:03:22;;;;;;;;;;;7.30;99.90;;;;;;5091087;28;19912;-64
2022/12/27 10:05:50;;;;;;;;;;;7.40;99.90;;;;;;5096145;28;19920;-63
2022/12/27 10:08:21;;;;;;;;;;;7.50;99.90;;;;;;5093748;28;20385;-63
2022/12/27 10:11:07;;;;;;;;;;;7.80;99.90;;;;;;5094368;28;20342;-63
2022/12/27 10:13:41;;;;;;;;;;;7.50;99.90;;;;;;5093376;28;19912;-63
2022/12/27 10:16:27;;;;;;;;;;;7.30;99.90;;;;;;5093868;28;19947;-63
2022/12/27 10:19:12;;;;;;;;;;;7.40;99.90;;;;;;5094078;28;19908;-63
2022/12/27 10:21:47;;;;;;;;;;;7.20;99.90;;;;;;5073687;28;20357;-63
2022/12/27 10:24:18;;;;;;;;;;;7.30;99.90;;;;;;5089055;28;20274;-63
2022/12/27 10:26:43;;;;;;;;;;;7.30;99.90;;;;;;5093637;28;19920;-64
2022/12/27 10:29:19;;;;;;;;;;;7.10;99.90;;;;;;5093830;28;19916;-63
2022/12/27 10:31:45;;;;;;;;;;;7.40;99.90;;;;;;5093914;28;19923;-63
2022/12/27 10:34:13;;;;;;;;;;;7.40;99.90;;;;;;5093936;28;19908;-63
2022/12/27 10:36:38;;;;;;;;;;;7.60;99.90;;;;;;5094149;28;19919;-63
2022/12/27 10:39:14;;;;;;;;;;;8.10;99.90;;;;;;5105573;28;19911;-63
2022/12/27 10:41:49;;;;;;;;;;;8.40;99.90;;;;;;5091404;28;20948;-63
2022/12/27 10:44:15;;;;;;;;;;;8.40;99.90;;;;;;5095766;28;19908;-63
2022/12/27 10:46:42;;;;;;;;;;;8.50;99.90;;;;;;5099430;28;19908;-63
2022/12/27 10:49:19;;;;;;;;;;;8.60;99.90;;;;;;5103339;28;19973;-64
2022/12/27 10:51:44;;;;;;;;;;;8.40;99.90;;;;;;5097091;28;19916;-63
2022/12/27 10:54:11;;;;;;;;;;;7.80;99.90;;;;;;5098906;28;20053;-63
2022/12/27 10:56:38;;;;;;;;;;;7.70;99.90;;;;;;5104471;28;20013;-63
2022/12/27 10:59:10;;;;;;;;;;;8.00;99.90;;;;;;5103807;28;19911;-63
2022/12/27 11:01:35;;;;;;;;;;;8.30;99.90;;;;;;5110377;28;20368;-63
2022/12/27 11:04:17;;;;;;;;;;;8.30;99.90;;;;;;5097463;28;19908;-63
2022/12/27 11:06:44;;;;;;;;;;;8.20;99.90;;;;;;5098068;28;19916;-63
2022/12/27 11:09:19;;;;;;;;;;;8.20;99.90;;;;;;5093311;28;20010;-63
2022/12/27 11:11:45;;;;;;;;;;;8.60;99.90;;;;;;5095946;28;19910;-63
2022/12/27 11:14:14;;;;;;;;;;;8.30;99.90;;;;;;5105096;28;19943;-63
2022/12/27 11:16:40;;;;;;;;;;;8.30;99.90;;;;;;5102276;28;19912;-63
2022/12/27 11:19:05;;;;;;;;;;;8.60;99.90;;;;;;5106258;28;19930;-63
2022/12/27 11:21:36;;;;;;;;;;;8.70;99.90;;;;;;5095924;28;20416;-64
2022/12/27 11:24:01;;;;;;;;;;;8.40;99.90;;;;;;5100231;28;19912;-63
2022/12/27 11:26:29;;;;;;;;;;;8.40;99.90;;;;;;5105203;28;19923;-63
2022/12/27 11:28:58;;;;;;;;;;;8.30;99.90;;;;;;5114328;28;20361;-63
2022/12/27 11:31:33;;;;;;;;;;;8.40;99.90;;;;;;5101620;28;19912;-64
2022/12/27 11:34:01;;;;;;;;;;;8.30;99.90;;;;;;5092394;28;20443;-63
2022/12/27 11:36:30;;;;;;;;;;;8.30;99.90;;;;;;5094899;28;19913;-63
2022/12/27 11:38:56;;;;;;;;;;;8.20;99.90;;;;;;5098788;28;20254;-63
2022/12/27 11:41:41;;;;;;;;;;;8.20;99.90;;;;;;5108998;28;19911;-62
2022/12/27 11:46:49;;;;;;;;;;;8.10;99.90;;;;;;5075033;28;20270;-63
2022/12/27 11:49:20;;;;;;;;;;;8.10;99.90;;;;;;5070142;28;19913;-63
2022/12/27 11:52:06;;;;;;;;;;;8.00;99.90;;;;;;5083986;28;19920;-63
2022/12/27 11:54:37;;;;;;;;;;;8.00;99.90;;;;;;5065391;28;19919;-63
2022/12/27 11:57:15;;;;;;;;;;;8.20;99.90;;;;;;5079856;28;19932;-63
2022/12/27 12:02:41;;;;;;;;;;;8.20;99.90;;;;;;5093755;28;19916;-63
2022/12/27 12:05:26;;;;;;;;;;;8.20;99.90;;;;;;5096286;28;19919;-63
2022/12/27 12:08:12;;;;;;;;;;;8.10;99.90;;;;;;5090509;28;19973;-63
2022/12/27 12:10:57;;;;;;;;;;;7.90;99.90;;;;;;5090134;28;20281;-63
2022/12/27 12:13:38;;;;;;;;;;;7.70;99.90;;;;;;5088760;28;20389;-65
2022/12/27 12:16:34;;;;;;;;;;;7.70;99.90;;;;;;5097372;28;20310;-63
2022/12/27 12:19:11;;;;;;;;;;;7.70;99.90;;;;;;5094571;28;19912;-63
2022/12/27 12:21:42;;;;;;;;;;;7.70;99.90;;;;;;5097177;28;19916;-63
2022/12/27 12:24:28;;;;;;;;;;;7.70;99.90;;;;;;5103795;28;19915;-63
2022/12/27 12:27:13;;;;;;;;;;;7.50;99.90;;;;;;5104366;28;20297;-63
2022/12/27 12:29:59;;;;;;;;;;;7.40;99.90;;;;;;5088442;28;20354;-63
2022/12/27 12:32:28;;;;;;;;;;;7.50;99.90;;;;;;5099884;28;20373;-63
2022/12/27 12:35:13;;;;;;;;;;;7.60;99.90;;;;;;5096158;28;19977;-63
2022/12/27 12:37:51;;;;;;;;;;;7.60;99.90;;;;;;5088848;28;19927;-63
2022/12/27 12:40:36;;;;;;;;;;;7.50;99.90;;;;;;5093669;28;19963;-63
2022/12/27 12:43:09;;;;;;;;;;;7.60;99.90;;;;;;5089588;28;19920;-63
2022/12/27 12:45:54;;;;;;;;;;;7.60;99.90;;;;;;5106700;28;19936;-63
2022/12/27 12:48:29;;;;;;;;;;;7.70;99.90;;;;;;5095089;28;19943;-63
2022/12/27 12:51:02;;;;;;;;;;;7.60;99.90;;;;;;5100406;28;19912;-63
2022/12/27 12:53:37;;;;;;;;;;;7.70;99.90;;;;;;5106638;28;19908;-64
2022/12/27 12:56:12;;;;;;;;;;;7.70;99.90;;;;;;5092365;28;19916;-63
2022/12/27 12:58:43;;;;;;;;;;;7.70;99.90;;;;;;5101562;28;19922;-63
2022/12/27 13:01:24;;;;;;;;;;;7.80;99.90;;;;;;5104173;28;19924;-63
2022/12/27 13:04:09;;;;;;;;;;;7.90;99.90;;;;;;5109850;28;19917;-63
2022/12/27 13:06:41;;;;;;;;;;;8.00;99.90;;;;;;5127186;28;19911;-63
2022/12/27 13:09:16;;;;;;;;;;;8.00;99.90;;;;;;5112005;28;19912;-63
2022/12/27 13:11:46;;;;;;;;;;;8.10;99.90;;;;;;5093941;28;20019;-63
2022/12/27 13:14:31;;;;;;;;;;;8.10;99.90;;;;;;5080659;28;20389;-63
2022/12/27 13:17:01;;;;;;;;;;;8.20;99.90;;;;;;5110382;28;19912;-63
2022/12/27 13:19:46;;;;;;;;;;;8.20;99.90;;;;;;5099177;28;19912;-63
2022/12/27 13:22:16;;;;;;;;;;;8.10;99.90;;;;;;5087958;28;19955;-63
2022/12/27 13:24:53;;;;;;;;;;;8.10;99.90;;;;;;5102919;28;20003;-63
2022/12/27 13:27:26;;;;;;;;;;;8.20;99.90;;;;;;5101097;28;20411;-63
2022/12/27 13:29:57;;;;;;;;;;;8.10;99.90;;;;;;5083121;28;19916;-63
2022/12/27 13:32:42;;;;;;;;;;;8.20;99.90;;;;;;5095066;28;20015;-63
2022/12/27 13:35:28;;;;;;;;;;;8.10;99.90;;;;;;5100023;28;19912;-63
2022/12/27 13:38:07;;;;;;;;;;;8.00;99.90;;;;;;5096216;28;20384;-63
2022/12/27 13:40:48;;;;;;;;;;;7.90;99.90;;;;;;5089615;28;19923;-63
2022/12/27 13:43:20;;;;;;;;;;;7.90;99.90;;;;;;5095532;28;19957;-63
2022/12/27 13:48:51;;;;;;;;;;;7.90;99.90;;;;;;5077287;28;19916;-62
2022/12/27 13:51:34;;;;;;;;;;;7.80;99.90;;;;;;5064166;28;19913;-62
2022/12/27 13:54:06;;;;;;;;;;;7.70;99.90;;;;;;5065993;28;20374;-62
2022/12/27 13:56:52;;;;;;;;;;;7.70;99.90;;;;;;5061328;28;19999;-62
2022/12/27 13:59:37;;;;;;;;;;;7.60;99.90;;;;;;5054342;28;19931;-63
2022/12/27 14:02:23;;;;;;;;;;;7.50;99.90;;;;;;5063463;28;19916;-62
2022/12/27 14:05:08;;;;;;;;;;;7.40;99.90;;;;;;5056039;28;19913;-62
2022/12/27 14:07:54;;;;;;;;;;;7.40;99.90;;;;;;5066522;28;20358;-62
2022/12/27 14:10:25;;;;;;;;;;;7.40;99.90;;;;;;5059295;28;20294;-63
2022/12/27 14:12:53;;;;;;;;;;;7.40;99.90;;;;;;5056610;28;19909;-63
2022/12/27 14:15:22;;;;;;;;;;;7.40;99.90;;;;;;5066866;28;20355;-62
2022/12/27 14:20:49;;;;;;;;;;;7.30;99.90;;;;;;5078980;28;20275;-62
2022/12/27 14:23:22;;;;;;;;;;;7.30;99.90;;;;;;5087192;28;19958;-63
2022/12/27 14:26:01;;;;;;;;;;;7.30;99.90;;;;;;5075547;28;19909;-63
2022/12/27 14:28:47;;;;;;;;;;;7.30;99.90;;;;;;5080211;28;20355;-62
2022/12/27 14:31:25;;;;;;;;;;;7.30;99.90;;;;;;5086919;28;19908;-63
2022/12/27 14:34:07;;;;;;;;;;;7.30;99.90;;;;;;5075733;28;19920;-62
2022/12/27 14:36:45;;;;;;;;;;;7.30;99.90;;;;;;5090345;28;19908;-62
2022/12/27 14:39:19;;;;;;;;;;;7.40;99.90;;;;;;5074071;28;20286;-62
2022/12/27 14:42:02;;;;;;;;;;;7.40;99.90;;;;;;5059555;28;20004;-62
2022/12/27 14:44:48;;;;;;;;;;;7.30;99.90;;;;;;5079911;28;19909;-62
2022/12/27 14:47:33;;;;;;;;;;;7.30;99.90;;;;;;5074074;28;19912;-63
2022/12/27 14:50:04;;;;;;;;;;;7.30;99.90;;;;;;5065821;28;20387;-62
2022/12/27 14:52:44;;;;;;;;;;;7.30;99.90;;;;;;5072499;28;20374;-62
2022/12/27 14:55:29;;;;;;;;;;;7.20;99.90;;;;;;5086415;28;19912;-62
2022/12/27 14:58:15;;;;;;;;;;;7.10;99.90;;;;;;5069181;28;20003;-63
2022/12/27 15:00:55;;;;;;;;;;;7.10;99.90;;;;;;5067020;28;19917;-62
2022/12/27 15:03:41;;;;;;;;;;;7.00;99.90;;;;;;5067619;28;20003;-63
2022/12/27 15:06:21;;;;;;;;;;;6.90;99.90;;;;;;5067715;28;19940;-62
2022/12/27 15:08:57;;;;;;;;;;;6.80;99.90;;;;;;5067869;28;19963;-62
2022/12/27 15:11:31;;;;;;;;;;;6.70;99.90;;;;;;5084682;28;19967;-63
2022/12/27 15:16:57;;;;;;;;;;;6.70;99.90;;;;;;5072840;28;20373;-63
2022/12/27 15:19:42;;;;;;;;;;;6.60;99.90;;;;;;5067093;28;20358;-63
2022/12/27 15:22:21;;;;;;;;;;;6.60;99.90;;;;;;5083771;28;19913;-63
2022/12/27 15:24:54;;;;;;;;;;;6.50;99.90;;;;;;5070905;28;19913;-63
2022/12/27 15:27:39;;;;;;;;;;;6.50;99.90;;;;;;5070744;28;19916;-63
2022/12/27 15:30:17;;;;;;;;;;;6.40;99.90;;;;;;5070731;28;20282;-63
2022/12/27 15:32:49;;;;;;;;;;;6.40;99.90;;;;;;5070841;28;20426;-63
2022/12/27 15:35:28;;;;;;;;;;;6.40;99.90;;;;;;5070600;28;20346;-63
2022/12/27 15:38:11;;;;;;;;;;;6.40;99.90;;;;;;5069268;28;19915;-63
2022/12/27 15:40:38;;;;;;;;;;;6.40;99.90;;;;;;5070593;28;19913;-63
2022/12/27 15:43:24;;;;;;;;;;;6.40;99.90;;;;;;5070470;28;19909;-63
2022/12/27 15:46:09;;;;;;;;;;;6.40;99.90;;;;;;5069032;28;19944;-63
2022/12/27 15:48:48;;;;;;;;;;;6.40;99.90;;;;;;5070277;28;19954;-63
2022/12/27 15:51:33;;;;;;;;;;;6.40;99.90;;;;;;5070574;28;19908;-63
2022/12/27 15:54:06;;;;;;;;;;;6.40;99.90;;;;;;5070181;28;19959;-63
2022/12/27 15:56:41;;;;;;;;;;;6.50;99.90;;;;;;5070057;28;19965;-63
2022/12/27 15:59:27;;;;;;;;;;;6.50;99.90;;;;;;5069997;28;19960;-63
2022/12/27 16:02:12;;;;;;;;;;;6.50;99.90;;;;;;5069935;28;19908;-63
2022/12/27 16:04:44;;;;;;;;;;;6.50;99.90;;;;;;5069951;28;19908;-63
2022/12/27 16:07:30;;;;;;;;;;;6.50;99.90;;;;;;5069833;28;19923;-63
2022/12/27 16:09:55;;;;;;;;;;;6.50;99.90;;;;;;5069831;28;19955;-63
2022/12/27 16:12:37;;;;;;;;;;;6.50;99.90;;;;;;5085449;28;19909;-63
2022/12/27 16:15:22;;;;;;;;;;;6.40;99.90;;;;;;5085181;28;19921;-63
2022/12/27 16:17:53;;;;;;;;;;;6.50;99.90;;;;;;5069672;28;19908;-63
2022/12/27 16:20:19;;;;;;;;;;;6.40;99.90;;;;;;5069548;28;20301;-63
2022/12/27 16:22:50;;;;;;;;;;;6.40;99.90;;;;;;5054472;28;20382;-63
2022/12/27 16:25:32;;;;;;;;;;;6.40;99.90;;;;;;5052659;28;20362;-63
2022/12/27 16:27:59;;;;;;;;;;;6.40;99.90;;;;;;5030203;28;20012;-63
2022/12/27 16:30:43;;;;;;;;;;;6.40;99.90;;;;;;5028062;28;19921;-64
2022/12/27 16:33:29;;;;;;;;;;;6.40;99.90;;;;;;5015919;28;19913;-63
2022/12/27 16:39:02;;;;;;;;;;;6.40;99.90;;;;;;5091321;27;19913;-64
2022/12/27 16:41:36;;;;;;;;;;;6.50;99.90;;;;;;5089885;28;19954;-63
2022/12/27 16:44:04;;;;;;;;;;;6.50;99.90;;;;;;5091162;28;19971;-63
2022/12/27 16:46:41;;;;;;;;;;;6.60;99.90;;;;;;5091258;28;19912;-63
2022/12/27 16:49:27;;;;;;;;;;;6.60;99.90;;;;;;5090887;28;20042;-63
2022/12/27 16:52:13;;;;;;;;;;;6.60;99.90;;;;;;5090969;28;19908;-63
2022/12/27 16:54:59;;;;;;;;;;;6.70;99.90;;;;;;5090858;28;20328;-63